EWG19EW EDDL-LKPR
Flight info
| Callsign | EWG19EW |
|---|---|
| Flight time | 0h 51m |
| Altitude | 35000 |
| Route | DODEN7Z DODEN Y853 BOMBI DCT ESATI/N0432F310 DCT KOMIB DCT SULUS Z650 TONSU Z35 ODOMO DCT LOMKI |
| Aircraft | A319/M-SDE3FGHIRWY/LB1 |
Departure
| Time | 2026-05-06 18:29 |
|---|---|
| Airport | Düsseldorf Airport (EDDL) |
Arrival
| Time | 2026-05-06 19:20 |
|---|---|
| Airport | Václav Havel Airport Prague (LKPR) |
| Time | Latitude | Longitude | Altitude | Speed | Heading |
|---|---|---|---|---|---|
| 2026-05-06 17:52 | 51.28068 | 6.76536 | 128 ft | 0 kts | 97° |
| 2026-05-06 18:19 | 51.28069 | 6.76522 | 129 ft | 5 kts | 96° |
| 2026-05-06 18:19 | 51.28071 | 6.76487 | 128 ft | 4 kts | 90° |
| 2026-05-06 18:19 | 51.28069 | 6.76465 | 125 ft | 2 kts | 23° |
| 2026-05-06 18:20 | 51.28058 | 6.76463 | 124 ft | 2 kts | 348° |
| 2026-05-06 18:20 | 51.28049 | 6.76466 | 123 ft | 0 kts | 348° |
| 2026-05-06 18:23 | 51.28054 | 6.76460 | 128 ft | 2 kts | 333° |
| 2026-05-06 18:23 | 51.28085 | 6.76429 | 128 ft | 8 kts | 326° |
| 2026-05-06 18:24 | 51.28133 | 6.76351 | 127 ft | 12 kts | 303° |
| 2026-05-06 18:24 | 51.28184 | 6.76254 | 125 ft | 11 kts | 320° |
| 2026-05-06 18:24 | 51.28198 | 6.76157 | 127 ft | 9 kts | 256° |
| 2026-05-06 18:24 | 51.28212 | 6.76067 | 125 ft | 9 kts | 317° |
| 2026-05-06 18:25 | 51.28233 | 6.76045 | 126 ft | 0 kts | 327° |
| 2026-05-06 18:26 | 51.28237 | 6.76040 | 126 ft | 3 kts | 328° |
| 2026-05-06 18:27 | 51.28291 | 6.75982 | 127 ft | 14 kts | 323° |
| 2026-05-06 18:27 | 51.28334 | 6.75983 | 127 ft | 0 kts | 52° |
| 2026-05-06 18:28 | 51.28349 | 6.76013 | 128 ft | 25 kts | 52° |
| 2026-05-06 18:28 | 51.28637 | 6.76618 | 126 ft | 110 kts | 52° |
| 2026-05-06 18:29 | 51.29217 | 6.77823 | 440 ft | 143 kts | 51° |
| 2026-05-06 18:29 | 51.29801 | 6.79116 | 1256 ft | 144 kts | 52° |
| 2026-05-06 18:29 | 51.30420 | 6.80456 | 1775 ft | 160 kts | 51° |
| 2026-05-06 18:29 | 51.31144 | 6.81970 | 2121 ft | 182 kts | 51° |
| 2026-05-06 18:30 | 51.31968 | 6.83691 | 2416 ft | 212 kts | 51° |
| 2026-05-06 18:30 | 51.32909 | 6.85658 | 3051 ft | 232 kts | 51° |
| 2026-05-06 18:30 | 51.33920 | 6.87796 | 3819 ft | 247 kts | 52° |
| 2026-05-06 18:30 | 51.34919 | 6.90096 | 4765 ft | 257 kts | 59° |
| 2026-05-06 18:31 | 51.35317 | 6.92928 | 5675 ft | 270 kts | 90° |
| 2026-05-06 18:31 | 51.35034 | 6.95920 | 6694 ft | 273 kts | 97° |
| 2026-05-06 18:31 | 51.34690 | 6.98943 | 7650 ft | 277 kts | 97° |
| 2026-05-06 18:31 | 51.34328 | 7.01979 | 8589 ft | 281 kts | 97° |
| 2026-05-06 18:32 | 51.33993 | 7.05084 | 9467 ft | 286 kts | 96° |
| 2026-05-06 18:32 | 51.33683 | 7.08254 | 10212 ft | 296 kts | 95° |
| 2026-05-06 18:32 | 51.33365 | 7.11630 | 10527 ft | 319 kts | 96° |
| 2026-05-06 18:32 | 51.32853 | 7.15133 | 11045 ft | 334 kts | 107° |
| 2026-05-06 18:33 | 51.31820 | 7.18568 | 11783 ft | 343 kts | 120° |
| 2026-05-06 18:33 | 51.30335 | 7.21573 | 12541 ft | 349 kts | 133° |
| 2026-05-06 18:33 | 51.28685 | 7.24171 | 13283 ft | 353 kts | 135° |
| 2026-05-06 18:33 | 51.26922 | 7.26942 | 14001 ft | 357 kts | 135° |
| 2026-05-06 18:34 | 51.25143 | 7.29745 | 14685 ft | 360 kts | 135° |
| 2026-05-06 18:34 | 51.23357 | 7.32561 | 15360 ft | 363 kts | 135° |
| 2026-05-06 18:34 | 51.21557 | 7.35426 | 16040 ft | 367 kts | 135° |
| 2026-05-06 18:34 | 51.19763 | 7.38350 | 16721 ft | 370 kts | 134° |
| 2026-05-06 18:35 | 51.17972 | 7.41314 | 17388 ft | 373 kts | 134° |
| 2026-05-06 18:35 | 51.16166 | 7.44321 | 18063 ft | 377 kts | 134° |
| 2026-05-06 18:35 | 51.14345 | 7.47356 | 18664 ft | 380 kts | 135° |
| 2026-05-06 18:35 | 51.12527 | 7.50373 | 19253 ft | 382 kts | 135° |
| 2026-05-06 18:36 | 51.10674 | 7.53433 | 19863 ft | 385 kts | 135° |
| 2026-05-06 18:36 | 51.08853 | 7.56429 | 20445 ft | 388 kts | 135° |
| 2026-05-06 18:36 | 51.06967 | 7.59518 | 21061 ft | 390 kts | 135° |
| 2026-05-06 18:36 | 51.05064 | 7.62626 | 21657 ft | 392 kts | 135° |
| 2026-05-06 18:37 | 51.03153 | 7.65743 | 22243 ft | 395 kts | 135° |
| 2026-05-06 18:37 | 51.01471 | 7.69137 | 22806 ft | 400 kts | 121° |
| 2026-05-06 18:37 | 51.00305 | 7.73174 | 23368 ft | 404 kts | 113° |
| 2026-05-06 18:37 | 50.99246 | 7.77313 | 23852 ft | 406 kts | 113° |
| 2026-05-06 18:38 | 50.98145 | 7.81476 | 24317 ft | 408 kts | 114° |
| 2026-05-06 18:38 | 50.97002 | 7.85635 | 24777 ft | 411 kts | 115° |
| 2026-05-06 18:38 | 50.95834 | 7.89798 | 25228 ft | 413 kts | 115° |
| 2026-05-06 18:38 | 50.94667 | 7.93925 | 25670 ft | 416 kts | 116° |
| 2026-05-06 18:39 | 50.93478 | 7.98130 | 26126 ft | 418 kts | 116° |
| 2026-05-06 18:39 | 50.92292 | 8.02348 | 26566 ft | 420 kts | 115° |
| 2026-05-06 18:39 | 50.91099 | 8.06611 | 27008 ft | 423 kts | 116° |
| 2026-05-06 18:40 | 50.88701 | 8.15203 | 27890 ft | 428 kts | 116° |
| 2026-05-06 18:40 | 50.87491 | 8.19534 | 28334 ft | 431 kts | 116° |
| 2026-05-06 18:40 | 50.86286 | 8.23827 | 28768 ft | 433 kts | 116° |
| 2026-05-06 18:40 | 50.85051 | 8.28200 | 29201 ft | 436 kts | 116° |
| 2026-05-06 18:41 | 50.83807 | 8.32599 | 29640 ft | 438 kts | 116° |
| 2026-05-06 18:41 | 50.82552 | 8.37032 | 30021 ft | 440 kts | 117° |
| 2026-05-06 18:41 | 50.81294 | 8.41468 | 30363 ft | 443 kts | 117° |
| 2026-05-06 18:41 | 50.80049 | 8.45853 | 30691 ft | 445 kts | 117° |
| 2026-05-06 18:42 | 50.78774 | 8.50338 | 31016 ft | 447 kts | 117° |
| 2026-05-06 18:42 | 50.77492 | 8.54838 | 31335 ft | 449 kts | 117° |
| 2026-05-06 18:42 | 50.76207 | 8.59348 | 31661 ft | 451 kts | 117° |
| 2026-05-06 18:42 | 50.74918 | 8.63870 | 32110 ft | 450 kts | 117° |
| 2026-05-06 18:43 | 50.73630 | 8.68374 | 32552 ft | 449 kts | 117° |
| 2026-05-06 18:43 | 50.72343 | 8.72853 | 32970 ft | 449 kts | 118° |
| 2026-05-06 18:43 | 50.71053 | 8.77343 | 33406 ft | 448 kts | 118° |
| 2026-05-06 18:43 | 50.69762 | 8.81828 | 33815 ft | 448 kts | 118° |
| 2026-05-06 18:44 | 50.68468 | 8.86314 | 34168 ft | 448 kts | 118° |
| 2026-05-06 18:44 | 50.67175 | 8.90778 | 34514 ft | 448 kts | 118° |
| 2026-05-06 18:44 | 50.65875 | 8.95259 | 34760 ft | 449 kts | 118° |
| 2026-05-06 18:45 | 50.63313 | 9.04096 | 34811 ft | 442 kts | 118° |
| 2026-05-06 18:45 | 50.60753 | 9.12894 | 34813 ft | 440 kts | 119° |
| 2026-05-06 18:46 | 50.58187 | 9.21645 | 34806 ft | 439 kts | 119° |
| 2026-05-06 18:46 | 50.55632 | 9.30311 | 34805 ft | 439 kts | 120° |
| 2026-05-06 18:47 | 50.53064 | 9.39023 | 34800 ft | 438 kts | 120° |
| 2026-05-06 18:47 | 50.50494 | 9.47708 | 34809 ft | 438 kts | 120° |
| 2026-05-06 18:48 | 50.47922 | 9.56386 | 34800 ft | 438 kts | 120° |
| 2026-05-06 18:48 | 50.45344 | 9.65044 | 34801 ft | 437 kts | 120° |
| 2026-05-06 18:49 | 50.43215 | 9.74037 | 34799 ft | 444 kts | 110° |
| 2026-05-06 18:49 | 50.41562 | 9.83331 | 34795 ft | 444 kts | 111° |
| 2026-05-06 18:50 | 50.39891 | 9.92664 | 34792 ft | 444 kts | 111° |
| 2026-05-06 18:50 | 50.38234 | 10.01933 | 34783 ft | 444 kts | 111° |
| 2026-05-06 18:51 | 50.36561 | 10.11252 | 34779 ft | 444 kts | 111° |
| 2026-05-06 18:51 | 50.34875 | 10.20578 | 34776 ft | 444 kts | 111° |
| 2026-05-06 18:52 | 50.33194 | 10.29861 | 34778 ft | 445 kts | 111° |
| 2026-05-06 18:52 | 50.31495 | 10.39174 | 34775 ft | 445 kts | 111° |
| 2026-05-06 18:53 | 50.29793 | 10.48443 | 34772 ft | 445 kts | 111° |
| 2026-05-06 18:53 | 50.28068 | 10.57779 | 34772 ft | 445 kts | 112° |
| 2026-05-06 18:54 | 50.26341 | 10.67016 | 34774 ft | 445 kts | 112° |
| 2026-05-06 18:54 | 50.24587 | 10.76333 | 34771 ft | 445 kts | 112° |
| 2026-05-06 18:55 | 50.22836 | 10.85575 | 34552 ft | 446 kts | 112° |
| 2026-05-06 18:55 | 50.21953 | 10.90240 | 34313 ft | 447 kts | 112° |
| 2026-05-06 18:55 | 50.21071 | 10.94895 | 34081 ft | 447 kts | 112° |
| 2026-05-06 18:55 | 50.20186 | 10.99574 | 33843 ft | 447 kts | 112° |
| 2026-05-06 18:56 | 50.19305 | 11.04224 | 33575 ft | 446 kts | 113° |
| 2026-05-06 18:56 | 50.18418 | 11.08868 | 33290 ft | 444 kts | 113° |
| 2026-05-06 18:56 | 50.17550 | 11.13407 | 33018 ft | 441 kts | 113° |
| 2026-05-06 18:56 | 50.16669 | 11.17999 | 32744 ft | 439 kts | 112° |
| 2026-05-06 18:57 | 50.15797 | 11.22545 | 32482 ft | 437 kts | 112° |
| 2026-05-06 18:57 | 50.14922 | 11.27090 | 32208 ft | 435 kts | 112° |
| 2026-05-06 18:57 | 50.14048 | 11.31616 | 31940 ft | 433 kts | 112° |
| 2026-05-06 18:57 | 50.13183 | 11.36082 | 31675 ft | 430 kts | 112° |
| 2026-05-06 18:58 | 50.12325 | 11.40493 | 31418 ft | 428 kts | 112° |
| 2026-05-06 18:58 | 50.11447 | 11.44999 | 31162 ft | 434 kts | 112° |
| 2026-05-06 18:58 | 50.10564 | 11.49504 | 30907 ft | 444 kts | 112° |
| 2026-05-06 18:58 | 50.09656 | 11.54134 | 30657 ft | 448 kts | 112° |
| 2026-05-06 18:59 | 50.08741 | 11.58790 | 30407 ft | 450 kts | 112° |
| 2026-05-06 18:59 | 50.07822 | 11.63462 | 30158 ft | 450 kts | 112° |
| 2026-05-06 18:59 | 50.06904 | 11.68141 | 29907 ft | 451 kts | 112° |
| 2026-05-06 18:59 | 50.05986 | 11.72812 | 29621 ft | 451 kts | 112° |
| 2026-05-06 19:00 | 50.05061 | 11.77487 | 29333 ft | 452 kts | 112° |
| 2026-05-06 19:00 | 50.04144 | 11.82109 | 29045 ft | 453 kts | 112° |
| 2026-05-06 19:00 | 50.03214 | 11.86788 | 28764 ft | 452 kts | 112° |
| 2026-05-06 19:00 | 50.02588 | 11.89937 | 28573 ft | 451 kts | 112° |
| 2026-05-06 19:01 | 50.01359 | 11.96081 | 28202 ft | 449 kts | 112° |
| 2026-05-06 19:01 | 50.00434 | 12.00712 | 27930 ft | 447 kts | 112° |
| 2026-05-06 19:01 | 49.99518 | 12.05318 | 27648 ft | 446 kts | 112° |
| 2026-05-06 19:01 | 49.98609 | 12.09911 | 27372 ft | 444 kts | 111° |
| 2026-05-06 19:02 | 49.98007 | 12.12961 | 27201 ft | 443 kts | 111° |
| 2026-05-06 19:02 | 49.97106 | 12.17523 | 26932 ft | 441 kts | 111° |
| 2026-05-06 19:02 | 49.96210 | 12.22047 | 26396 ft | 436 kts | 111° |
| 2026-05-06 19:02 | 49.95311 | 12.26541 | 25813 ft | 433 kts | 111° |
| 2026-05-06 19:03 | 49.94420 | 12.30975 | 25232 ft | 429 kts | 111° |
| 2026-05-06 19:03 | 49.93771 | 12.35503 | 24661 ft | 431 kts | 101° |
| 2026-05-06 19:03 | 49.93571 | 12.40161 | 24178 ft | 431 kts | 95° |
| 2026-05-06 19:03 | 49.93454 | 12.44808 | 23684 ft | 429 kts | 95° |
| 2026-05-06 19:04 | 49.93329 | 12.49423 | 23150 ft | 426 kts | 95° |
| 2026-05-06 19:04 | 49.93199 | 12.54003 | 22647 ft | 423 kts | 95° |
| 2026-05-06 19:04 | 49.93063 | 12.58484 | 22161 ft | 419 kts | 96° |
| 2026-05-06 19:04 | 49.92919 | 12.63006 | 21676 ft | 416 kts | 96° |
| 2026-05-06 19:05 | 49.92778 | 12.67461 | 21197 ft | 413 kts | 96° |
| 2026-05-06 19:05 | 49.92638 | 12.71910 | 20717 ft | 410 kts | 95° |
| 2026-05-06 19:05 | 49.92504 | 12.76319 | 20245 ft | 407 kts | 95° |
| 2026-05-06 19:05 | 49.92371 | 12.80695 | 19778 ft | 404 kts | 95° |
| 2026-05-06 19:06 | 49.92237 | 12.85045 | 19306 ft | 401 kts | 95° |
| 2026-05-06 19:06 | 49.92101 | 12.89376 | 18837 ft | 398 kts | 95° |
| 2026-05-06 19:06 | 49.91965 | 12.93606 | 18383 ft | 395 kts | 95° |
| 2026-05-06 19:06 | 49.91826 | 12.97859 | 17903 ft | 392 kts | 95° |
| 2026-05-06 19:07 | 49.91688 | 13.02063 | 17434 ft | 389 kts | 95° |
| 2026-05-06 19:07 | 49.91551 | 13.06241 | 16980 ft | 386 kts | 95° |
| 2026-05-06 19:07 | 49.91412 | 13.10411 | 16526 ft | 384 kts | 95° |
| 2026-05-06 19:07 | 49.91272 | 13.14479 | 16094 ft | 381 kts | 95° |
| 2026-05-06 19:08 | 49.91130 | 13.18583 | 15653 ft | 379 kts | 95° |
| 2026-05-06 19:08 | 49.90989 | 13.22670 | 15224 ft | 376 kts | 95° |
| 2026-05-06 19:08 | 49.90848 | 13.26703 | 14793 ft | 374 kts | 95° |
| 2026-05-06 19:08 | 49.90707 | 13.30717 | 14357 ft | 371 kts | 95° |
| 2026-05-06 19:09 | 49.90655 | 13.34659 | 13924 ft | 371 kts | 86° |
| 2026-05-06 19:09 | 49.91340 | 13.38475 | 13459 ft | 369 kts | 64° |
| 2026-05-06 19:09 | 49.92830 | 13.41693 | 12904 ft | 367 kts | 47° |
| 2026-05-06 19:09 | 49.94607 | 13.44535 | 12333 ft | 365 kts | 45° |
| 2026-05-06 19:10 | 49.96387 | 13.47331 | 11793 ft | 362 kts | 45° |
| 2026-05-06 19:10 | 49.98158 | 13.50107 | 11289 ft | 360 kts | 45° |
| 2026-05-06 19:10 | 49.99917 | 13.52867 | 10814 ft | 357 kts | 45° |
| 2026-05-06 19:10 | 50.01656 | 13.55601 | 10352 ft | 355 kts | 45° |
| 2026-05-06 19:11 | 50.03377 | 13.58307 | 10077 ft | 347 kts | 45° |
| 2026-05-06 19:11 | 50.05028 | 13.60904 | 9950 ft | 336 kts | 45° |
| 2026-05-06 19:11 | 50.06657 | 13.63469 | 9809 ft | 326 kts | 45° |
| 2026-05-06 19:11 | 50.08050 | 13.65664 | 9750 ft | 316 kts | 45° |
| 2026-05-06 19:12 | 50.09561 | 13.68044 | 9760 ft | 306 kts | 45° |
| 2026-05-06 19:12 | 50.11031 | 13.70365 | 9671 ft | 296 kts | 45° |
| 2026-05-06 19:12 | 50.12463 | 13.72629 | 9546 ft | 288 kts | 45° |
| 2026-05-06 19:12 | 50.13860 | 13.74836 | 9321 ft | 284 kts | 45° |
| 2026-05-06 19:13 | 50.15246 | 13.77026 | 9041 ft | 282 kts | 45° |
| 2026-05-06 19:13 | 50.16603 | 13.79166 | 8815 ft | 280 kts | 45° |
| 2026-05-06 19:13 | 50.17976 | 13.81328 | 8754 ft | 279 kts | 45° |
| 2026-05-06 19:13 | 50.19347 | 13.83490 | 8516 ft | 279 kts | 45° |
| 2026-05-06 19:14 | 50.20712 | 13.85646 | 8220 ft | 278 kts | 45° |
| 2026-05-06 19:14 | 50.22041 | 13.87740 | 8009 ft | 267 kts | 45° |
| 2026-05-06 19:14 | 50.23316 | 13.89754 | 7799 ft | 256 kts | 46° |
| 2026-05-06 19:14 | 50.24236 | 13.92062 | 7415 ft | 249 kts | 76° |
| 2026-05-06 19:15 | 50.24414 | 13.94640 | 6948 ft | 245 kts | 93° |
| 2026-05-06 19:15 | 50.24218 | 13.97241 | 6464 ft | 237 kts | 117° |
| 2026-05-06 19:15 | 50.23231 | 13.99166 | 5879 ft | 225 kts | 143° |
| 2026-05-06 19:15 | 50.22121 | 14.00916 | 5194 ft | 228 kts | 130° |
| 2026-05-06 19:16 | 50.21169 | 14.02910 | 4641 ft | 229 kts | 128° |
| 2026-05-06 19:16 | 50.20232 | 14.04899 | 4280 ft | 227 kts | 128° |
| 2026-05-06 19:16 | 50.19314 | 14.06824 | 3969 ft | 218 kts | 128° |
| 2026-05-06 19:16 | 50.18419 | 14.08692 | 3678 ft | 207 kts | 127° |
| 2026-05-06 19:17 | 50.17591 | 14.10419 | 3454 ft | 194 kts | 127° |
| 2026-05-06 19:17 | 50.16803 | 14.12061 | 3172 ft | 183 kts | 127° |
| 2026-05-06 19:17 | 50.16061 | 14.13603 | 2940 ft | 173 kts | 126° |
| 2026-05-06 19:17 | 50.15347 | 14.15090 | 2714 ft | 170 kts | 126° |
| 2026-05-06 19:18 | 50.14647 | 14.16546 | 2502 ft | 164 kts | 126° |
| 2026-05-06 19:18 | 50.14003 | 14.17884 | 2281 ft | 145 kts | 124° |
| 2026-05-06 19:18 | 50.13411 | 14.19113 | 2084 ft | 139 kts | 124° |
| 2026-05-06 19:18 | 50.12835 | 14.20314 | 1881 ft | 138 kts | 125° |
| 2026-05-06 19:19 | 50.12261 | 14.21500 | 1693 ft | 136 kts | 125° |
| 2026-05-06 19:19 | 50.11707 | 14.22657 | 1557 ft | 134 kts | 124° |
| 2026-05-06 19:19 | 50.11130 | 14.23842 | 1334 ft | 139 kts | 126° |
| 2026-05-06 19:19 | 50.10540 | 14.25052 | 1168 ft | 133 kts | 127° |
| 2026-05-06 19:20 | 50.10121 | 14.25917 | 1190 ft | 58 kts | 127° |
| 2026-05-06 19:20 | 50.09928 | 14.26350 | 1199 ft | 48 kts | 124° |
| 2026-05-06 19:20 | 50.09878 | 14.26659 | 1207 ft | 27 kts | 83° |
| 2026-05-06 19:20 | 50.09904 | 14.26969 | 1206 ft | 30 kts | 83° |
| 2026-05-06 19:21 | 50.09913 | 14.27077 | 1203 ft | 0 kts | 82° |
| 2026-05-06 19:22 | 50.09913 | 14.27080 | 1203 ft | 2 kts | 82° |
| 2026-05-06 19:22 | 50.09930 | 14.27133 | 1201 ft | 9 kts | 18° |
| 2026-05-06 19:23 | 50.09980 | 14.27053 | 1198 ft | 13 kts | 307° |
| 2026-05-06 19:23 | 50.10045 | 14.26913 | 1192 ft | 19 kts | 305° |
| 2026-05-06 19:23 | 50.10138 | 14.26720 | 1178 ft | 24 kts | 311° |
| 2026-05-06 19:23 | 50.10212 | 14.26570 | 1175 ft | 4 kts | 308° |
| 2026-05-06 19:24 | 50.10212 | 14.26569 | 1175 ft | 0 kts | 308° |
| 2026-05-06 19:25 | 50.10213 | 14.26568 | 1175 ft | 1 kts | 308° |
| 2026-05-06 19:25 | 50.10237 | 14.26531 | 1177 ft | 9 kts | 329° |
| 2026-05-06 19:25 | 50.10307 | 14.26578 | 1172 ft | 14 kts | 35° |
| 2026-05-06 19:25 | 50.10367 | 14.26619 | 1172 ft | 1 kts | 343° |
| 2026-05-06 19:26 | 50.10386 | 14.26583 | 1174 ft | 8 kts | 307° |
| 2026-05-06 19:26 | 50.10434 | 14.26503 | 1172 ft | 7 kts | 359° |
| 2026-05-06 19:26 | 50.10456 | 14.26528 | 1174 ft | 1 kts | 36° |
| 2026-05-06 19:26 | 50.10461 | 14.26532 | 1172 ft | 0 kts | 34° |